»·PEaware :: N21SB KLAS-KBUR

N21SB :: KLAS-KBUR

FLIGHT INFORMATION

Flight Status: Arrived
Operator: Privately registered:
United States
More flights under this callsign
Pilot: Michael S. (30192)
Aircraft: CESSNA 510 CITATION MUSTANG
(C510)
More flights by this aircraft type
Origin: KLAS McCarran Intl
United States
Destination: KBUR Bob Hope-Burbank
United States
More flights between these airports :: More routes between these airports
Route: +BOACH8 WHIGG KREME JANNY5
File this flight plan on PilotEdge
Remarks:
Altitude:
(Current/Filed)
28,000ft
Speed:
(Current/Filed)
343kts
Departed: 21-Nov-20 09:50 AM
Arrived: 21-Nov-20 10:45 AM
Distance/Time
Traveled:
193nm/0:55
Distance/Time
To Go:
Arrived

Flight Plot

Page will automatically refresh every two minutes.

Flight plan parsing failed; only flown route is shown


Map Options




Map Legend


Flown Route
Filed Route
Departure Airport
Arrival Airport
Navaid (VOR, NDB)
Fix

Horizontal Profiles

Position Reports

Time Latitude Longitude Heading Altitude Ground
Speed
21-Nov-20 09:35 36.098020 -115.162343 3 2107ft 0kts
21-Nov-20 09:36 36.098020 -115.162343 3 2107ft 0kts
21-Nov-20 09:37 36.098020 -115.162343 3 2107ft 0kts
21-Nov-20 09:38 36.098020 -115.162343 3 2107ft 0kts
21-Nov-20 09:39 36.098020 -115.162343 3 2107ft 0kts
21-Nov-20 09:40 36.098020 -115.162343 3 2107ft 0kts
21-Nov-20 09:41 36.098020 -115.162343 3 2107ft 0kts
21-Nov-20 09:42 36.098020 -115.162343 3 2107ft 0kts
21-Nov-20 09:43 36.098020 -115.162343 3 2107ft 0kts
21-Nov-20 09:44 36.098020 -115.162343 3 2107ft 0kts
21-Nov-20 09:45 36.097974 -115.161700 91 2104ft 6kts
21-Nov-20 09:46 36.099132 -115.159129 28 2093ft 3kts
21-Nov-20 09:47 36.099813 -115.157658 79 2086ft 0kts
21-Nov-20 09:48 36.098850 -115.156929 206 2085ft 0kts
21-Nov-20 09:49 36.088042 -115.163134 204 2131ft 119kts
21-Nov-20 09:50 36.056054 -115.183121 206 4054ft 137kts
21-Nov-20 09:51 36.013166 -115.206493 235 6015ft 191kts
21-Nov-20 09:52 35.981282 -115.278673 241 6702ft 272kts
21-Nov-20 09:53 35.917193 -115.308004 185 6695ft 251kts
21-Nov-20 09:54 35.851659 -115.314462 174 8654ft 225kts
21-Nov-20 09:55 35.788392 -115.307226 174 10812ft 234kts
21-Nov-20 09:56 35.723339 -115.299819 174 12696ft 240kts
21-Nov-20 09:57 35.663055 -115.315556 227 14111ft 246kts
21-Nov-20 09:58 35.616660 -115.377691 227 15518ft 251kts
21-Nov-20 09:59 35.569047 -115.441667 227 16861ft 257kts
21-Nov-20 10:00 35.520378 -115.506953 227 18134ft 262kts
21-Nov-20 10:01 35.499751 -115.590547 255 19280ft 267kts
21-Nov-20 10:02 35.447865 -115.655112 222 20675ft 273kts
21-Nov-20 10:03 35.390521 -115.717682 221 22319ft 280kts
21-Nov-20 10:04 35.331517 -115.780801 220 23843ft 287kts
21-Nov-20 10:05 35.270851 -115.845488 220 25280ft 294kts
21-Nov-20 10:06 35.208638 -115.911677 220 26637ft 301kts
21-Nov-20 10:07 35.144855 -115.979391 220 27918ft 307kts
21-Nov-20 10:08 35.076224 -116.052089 220 28009ft 347kts
21-Nov-20 10:09 35.004056 -116.128351 220 27998ft 340kts
21-Nov-20 10:10 34.932968 -116.203293 220 27999ft 337kts
21-Nov-20 10:11 34.887131 -116.300400 244 28000ft 334kts
21-Nov-20 10:12 34.847222 -116.403192 244 26228ft 337kts
21-Nov-20 10:13 34.807527 -116.505118 244 23822ft 324kts
21-Nov-20 10:14 34.783281 -116.600871 263 22983ft 275kts
21-Nov-20 10:15 34.774824 -116.687416 263 22330ft 257kts
21-Nov-20 10:16 34.766689 -116.770958 263 21733ft 240kts
21-Nov-20 10:17 34.759244 -116.846980 263 21608ft 214kts
21-Nov-20 10:19 34.752487 -116.914520 262 21569ft 208kts
21-Nov-20 10:20 34.745071 -116.987864 262 21718ft 269kts
21-Nov-20 10:21 34.736393 -117.073121 262 21810ft 323kts
21-Nov-20 10:22 34.725675 -117.177638 262 21865ft 358kts
21-Nov-20 10:23 34.713955 -117.290919 262 21892ft 376kts
21-Nov-20 10:24 34.701649 -117.408762 262 21903ft 384kts
21-Nov-20 10:25 34.689345 -117.525274 262 20393ft 365kts
21-Nov-20 10:26 34.678577 -117.626301 263 18452ft 328kts
21-Nov-20 10:27 34.668657 -117.720021 262 16698ft 323kts
21-Nov-20 10:28 34.658919 -117.811354 262 14982ft 320kts
21-Nov-20 10:29 34.649077 -117.902578 262 13651ft 305kts
21-Nov-20 10:30 34.640196 -117.983897 262 12917ft 290kts
21-Nov-20 10:31 34.630391 -118.068034 255 12196ft 282kts
21-Nov-20 10:32 34.605730 -118.179467 255 11252ft 277kts
21-Nov-20 10:32 34.587908 -118.259419 255 9890ft 302kts
21-Nov-20 10:34 34.563127 -118.370134 255 8012ft 304kts
21-Nov-20 10:34 34.534951 -118.442986 214 7958ft 276kts
21-Nov-20 10:35 34.469198 -118.495546 213 7688ft 275kts
21-Nov-20 10:37 34.400580 -118.548816 212 6683ft 270kts
21-Nov-20 10:37 34.351804 -118.586820 213 5962ft 248kts
21-Nov-20 10:39 34.283523 -118.603284 172 5206ft 213kts
21-Nov-20 10:39 34.237987 -118.595182 170 4818ft 179kts
21-Nov-20 10:41 34.196497 -118.554448 87 4496ft 186kts
21-Nov-20 10:41 34.199374 -118.496138 90 3121ft 232kts
21-Nov-20 10:42 34.197496 -118.415689 89 1529ft 225kts
21-Nov-20 10:43 34.197823 -118.362913 91 722ft 111kts
21-Nov-20 10:44 34.198074 -118.352342 46 698ft 0kts

Navigation Log

Ident Type
Flight plan parsing failed, navigation log unavailable